Time;durP1;ratioP1;P1;durP2;ratioP2;P2;SDS_P1;SDS_P2;PMS_P1;PMS_P2;Temp;Humidity;BMP_temperature;BMP_pressure;BME280_temperature;BME280_humidity;BME280_pressure;Samples;Min_cycle;Max_cycle;Signal;HPM_P1;HPM_P2
2022/03/08 00:02:23;;;;;;;9.30;5.67;;;;;;;-2.01;91.45;99676.42;1785799;80;21187;-79
2022/03/08 00:05:30;;;;;;;10.18;5.55;;;;;;;-2.00;91.52;99679.95;1785942;80;21156;-75
2022/03/08 00:08:34;;;;;;;8.60;5.80;;;;;;;-1.98;91.54;99673.50;1785689;80;21750;-75
2022/03/08 00:11:40;;;;;;;6.62;5.17;;;;;;;-1.96;91.51;99670.23;1784047;79;21219;-75
2022/03/08 00:14:46;;;;;;;9.63;6.45;;;;;;;-1.93;91.58;99668.69;1770871;80;21161;-74
2022/03/08 00:17:53;;;;;;;10.25;6.90;;;;;;;-1.92;91.70;99669.05;1770617;80;21273;-81
2022/03/08 00:20:59;;;;;;;13.85;7.28;;;;;;;-1.90;91.90;99659.55;1771951;81;21722;-76
2022/03/08 00:24:05;;;;;;;10.58;6.72;;;;;;;-1.88;91.98;99663.84;1772019;81;21191;-79
2022/03/08 00:27:12;;;;;;;12.75;6.92;;;;;;;-1.85;92.19;99662.73;1771136;81;21161;-75
2022/03/08 00:30:18;;;;;;;10.23;7.00;;;;;;;-1.86;92.23;99659.69;1772164;81;21182;-81
2022/03/08 00:33:24;;;;;;;10.43;7.37;;;;;;;-1.87;92.30;99658.84;1770732;81;21165;-75
2022/03/08 00:36:31;;;;;;;8.55;5.65;;;;;;;-1.88;92.33;99656.28;1770511;81;21186;-82
2022/03/08 00:39:37;;;;;;;10.50;7.15;;;;;;;-1.87;92.17;99654.82;1770680;81;21146;-75
2022/03/08 00:42:42;;;;;;;10.55;7.20;;;;;;;-1.88;91.83;99646.41;1770496;81;21188;-76
2022/03/08 00:45:48;;;;;;;10.53;7.10;;;;;;;-1.87;91.62;99641.91;1770585;81;21782;-76
2022/03/08 00:48:55;;;;;;;10.70;7.00;;;;;;;-1.89;91.45;99641.14;1771739;81;21220;-81
2022/03/08 00:52:02;;;;;;;10.90;6.83;;;;;;;-1.90;91.35;99640.30;1771709;81;21185;-82
2022/03/08 00:55:08;;;;;;;10.40;7.15;;;;;;;-1.89;91.26;99643.34;1771885;81;21161;-82
2022/03/08 00:58:07;;;;;;;10.38;7.03;;;;;;;-1.90;91.21;99637.61;1770771;81;21712;-76
2022/03/08 01:01:01;;;;;;;13.55;7.50;;;;;;;-1.88;91.10;99631.67;1771244;81;21205;-82
2022/03/08 01:03:46;;;;;;;10.28;6.65;;;;;;;-1.88;91.05;99631.67;1771925;81;21360;-83
2022/03/08 01:06:38;;;;;;;10.32;7.33;;;;;;;-1.87;90.92;99627.16;1771738;81;21204;-78
2022/03/08 01:09:25;;;;;;;12.23;7.10;;;;;;;-1.87;90.83;99627.16;1771903;81;21153;-75
2022/03/08 01:12:18;;;;;;;10.85;7.30;;;;;;;-1.86;90.76;99630.20;1772117;81;21517;-76
2022/03/08 01:15:24;;;;;;;10.68;7.67;;;;;;;-1.87;90.71;99627.16;1785575;80;21156;-81
2022/03/08 01:18:29;;;;;;;11.75;7.97;;;;;;;-1.86;90.74;99628.86;1784056;80;21749;-76
2022/03/08 01:21:34;;;;;;;10.63;7.00;;;;;;;-1.85;90.78;99631.42;1785315;80;21184;-82
2022/03/08 01:24:41;;;;;;;10.15;7.12;;;;;;;-1.85;90.78;99623.38;1785464;80;21140;-75
2022/03/08 01:27:50;;;;;;;9.33;6.50;;;;;;;-1.86;90.77;99620.33;1784510;80;21554;-76
2022/03/08 01:30:49;;;;;;;12.73;7.05;;;;;;;-1.88;90.87;99622.77;1783909;80;21161;-82
2022/03/08 01:33:55;;;;;;;11.80;7.03;;;;;;;-1.90;90.93;99621.53;1785491;80;21145;-82
2022/03/08 01:37:01;;;;;;;9.73;6.65;;;;;;;-1.94;90.85;99626.74;1785084;80;21235;-82
2022/03/08 01:40:07;;;;;;;11.00;7.40;;;;;;;-2.00;90.55;99627.20;1783939;80;21161;-76
2022/03/08 01:43:14;;;;;;;8.80;6.15;;;;;;;-2.03;90.25;99626.08;1784222;80;21247;-76
2022/03/08 01:46:22;;;;;;;12.28;7.20;;;;;;;-2.05;90.02;99626.69;1785334;80;21220;-82
2022/03/08 01:49:28;;;;;;;7.62;4.85;;;;;;;-2.07;89.89;99626.81;1784233;80;21133;-76
2022/03/08 01:52:35;;;;;;;10.38;7.42;;;;;;;-2.08;89.74;99618.86;1784747;80;21192;-81
2022/03/08 01:55:41;;;;;;;10.65;7.25;;;;;;;-2.11;89.69;99616.44;1783944;80;21212;-76
2022/03/08 01:58:48;;;;;;;10.65;7.25;;;;;;;-2.12;89.68;99621.39;1785511;80;21133;-81
2022/03/08 02:01:54;;;;;;;12.03;6.60;;;;;;;-2.13;89.51;99615.67;1785098;80;21196;-82
2022/03/08 02:05:01;;;;;;;10.32;7.22;;;;;;;-2.14;89.49;99616.64;1785297;80;21177;-76
2022/03/08 02:08:07;;;;;;;9.45;6.90;;;;;;;-2.15;89.50;99624.32;1783955;79;21758;-82
2022/03/08 02:11:12;;;;;;;11.20;7.15;;;;;;;-2.17;89.40;99616.86;1785303;80;21762;-82
2022/03/08 02:14:18;;;;;;;8.95;6.60;;;;;;;-2.18;89.43;99617.34;1784853;79;21183;-81
2022/03/08 02:17:24;;;;;;;11.57;7.80;;;;;;;-2.16;89.33;99615.92;1785218;80;21177;-81
2022/03/08 02:20:30;;;;;;;12.13;7.78;;;;;;;-2.14;89.27;99624.69;1785424;80;21188;-76
2022/03/08 02:23:36;;;;;;;11.12;7.30;;;;;;;-2.12;89.33;99618.72;1784187;80;21730;-82
2022/03/08 02:26:42;;;;;;;13.80;6.72;;;;;;;-2.10;89.26;99618.14;1785511;80;21185;-76
2022/03/08 02:29:48;;;;;;;15.93;8.00;;;;;;;-2.11;89.24;99625.81;1784360;80;21785;-76
2022/03/08 02:32:53;;;;;;;12.98;7.37;;;;;;;-2.12;89.19;99622.73;1745465;82;21259;-76
2022/03/08 02:35:59;;;;;;;8.80;6.33;;;;;;;-2.13;89.18;99618.35;1729587;83;21209;-76
2022/03/08 02:39:06;;;;;;;10.38;7.40;;;;;;;-2.16;89.23;99625.30;1718021;83;21168;-77
2022/03/08 02:42:11;;;;;;;11.97;7.72;;;;;;;-2.20;89.46;99632.70;1718360;83;21187;-82
2022/03/08 02:45:18;;;;;;;10.78;7.55;;;;;;;-2.23;89.52;99630.72;1718789;83;21156;-82
2022/03/08 02:48:25;;;;;;;12.28;7.97;;;;;;;-2.26;89.71;99634.45;1717336;83;21808;-82
2022/03/08 02:51:25;;;;;;;12.55;7.70;;;;;;;-2.27;89.87;99631.41;1718470;83;21199;-82
2022/03/08 02:54:31;;;;;;;10.43;6.40;;;;;;;-2.26;89.98;99638.48;1718844;83;21819;-76
2022/03/08 02:57:37;;;;;;;15.75;7.12;;;;;;;-2.22;90.12;99629.74;1718883;83;21211;-82
2022/03/08 03:00:42;;;;;;;11.65;7.53;;;;;;;-2.22;90.06;99629.74;1718612;83;21215;-75
2022/03/08 03:03:48;;;;;;;10.93;7.15;;;;;;;-2.24;90.10;99639.23;1718688;83;21161;-77
2022/03/08 03:06:53;;;;;;;8.85;6.03;;;;;;;-2.25;90.11;99638.02;1718165;83;21780;-82
2022/03/08 03:09:59;;;;;;;13.50;7.50;;;;;;;-2.23;90.27;99635.59;1717589;83;21200;-77
2022/03/08 03:13:04;;;;;;;9.93;7.65;;;;;;;-2.22;90.20;99632.42;1717774;83;21194;-75
2022/03/08 03:16:10;;;;;;;10.25;7.42;;;;;;;-2.23;90.05;99631.56;1711549;83;21200;-81
2022/03/08 03:19:15;;;;;;;12.98;8.33;;;;;;;-2.22;90.06;99637.78;1771402;81;21162;-76
2022/03/08 03:22:20;;;;;;;10.53;7.33;;;;;;;-2.21;90.08;99630.11;1770464;81;21192;-76
2022/03/08 03:25:26;;;;;;;9.83;7.15;;;;;;;-2.18;90.08;99632.57;1771909;81;21675;-75
2022/03/08 03:28:32;;;;;;;12.53;8.65;;;;;;;-2.20;90.09;99637.20;1770541;81;21193;-82
2022/03/08 03:31:38;;;;;;;12.50;8.80;;;;;;;-2.19;90.24;99639.76;1771894;81;21216;-82
2022/03/08 03:34:43;;;;;;;16.12;8.13;;;;;;;-2.18;90.24;99636.59;1771883;81;21149;-82
2022/03/08 03:37:50;;;;;;;14.98;8.78;;;;;;;-2.16;90.18;99638.69;1772032;81;21173;-76
2022/03/08 03:40:57;;;;;;;14.63;8.33;;;;;;;-2.18;90.21;99635.25;1772010;81;21161;-76
2022/03/08 03:44:02;;;;;;;11.40;7.90;;;;;;;-2.19;90.31;99629.04;1771924;81;21857;-75
2022/03/08 03:47:09;;;;;;;11.78;9.03;;;;;;;-2.19;90.39;99640.24;1771483;81;21193;-81
2022/03/08 03:50:14;;;;;;;13.32;8.53;;;;;;;-2.21;90.55;99630.99;1770558;81;21181;-81
2022/03/08 03:53:20;;;;;;;14.98;9.15;;;;;;;-2.23;90.70;99632.05;1771513;81;21707;-77
2022/03/08 03:56:26;;;;;;;13.93;8.68;;;;;;;-2.25;90.90;99632.66;1771913;81;21146;-77
2022/03/08 03:59:32;;;;;;;12.63;8.93;;;;;;;-2.26;91.05;99620.21;1771650;81;22169;-76
2022/03/08 04:02:37;;;;;;;13.53;9.18;;;;;;;-2.27;91.28;99630.08;1771244;81;21193;-75
2022/03/08 04:05:43;;;;;;;12.28;8.10;;;;;;;-2.27;91.40;99631.91;1772109;81;21146;-82
2022/03/08 04:08:48;;;;;;;14.28;9.60;;;;;;;-2.29;91.59;99627.16;1772053;81;21727;-82
2022/03/08 04:11:56;;;;;;;15.23;9.93;;;;;;;-2.30;91.75;99629.47;1772084;81;21173;-76
2022/03/08 04:15:01;;;;;;;14.78;10.23;;;;;;;-2.30;91.97;99630.80;1771906;81;21162;-76
2022/03/08 04:18:08;;;;;;;16.73;10.20;;;;;;;-2.32;92.10;99628.22;1781976;79;21196;-76
2022/03/08 04:21:15;;;;;;;17.02;9.98;;;;;;;-2.33;92.27;99627.36;1784327;80;21137;-76
2022/03/08 04:24:20;;;;;;;14.85;9.98;;;;;;;-2.32;92.42;99630.89;1785425;80;21185;-75
2022/03/08 04:27:28;;;;;;;15.25;10.63;;;;;;;-2.32;92.54;99630.89;1784232;80;21621;-75
2022/03/08 04:30:34;;;;;;;16.50;10.63;;;;;;;-2.33;92.63;99635.89;1784980;80;21185;-75
2022/03/08 04:33:41;;;;;;;16.07;9.45;;;;;;;-2.33;92.77;99630.53;1785680;80;21157;-82
2022/03/08 04:36:47;;;;;;;13.75;9.95;;;;;;;-2.31;92.88;99636.62;1785523;80;21184;-76
2022/03/08 04:39:53;;;;;;;15.90;10.35;;;;;;;-2.29;93.00;99637.87;1784149;80;21834;-75
2022/03/08 04:42:59;;;;;;;14.90;10.40;;;;;;;-2.25;93.14;99643.37;1784323;80;21192;-82
2022/03/08 04:46:06;;;;;;;16.67;9.80;;;;;;;-2.23;93.26;99641.44;1784330;80;21743;-76
2022/03/08 04:49:05;;;;;;;12.88;9.58;;;;;;;-2.20;93.36;99641.22;1785641;80;21180;-75
2022/03/08 04:52:11;;;;;;;18.15;11.03;;;;;;;-2.15;93.49;99640.39;1785307;80;21180;-75
2022/03/08 04:55:17;;;;;;;14.95;9.28;;;;;;;-2.12;93.54;99640.16;1784209;80;21161;-81
2022/03/08 04:58:26;;;;;;;16.48;10.35;;;;;;;-2.09;93.68;99652.00;1784296;80;21201;-81
2022/03/08 05:01:32;;;;;;;16.45;10.48;;;;;;;-2.08;93.84;99645.17;1784563;80;21196;-82
2022/03/08 05:04:37;;;;;;;14.73;11.15;;;;;;;-2.03;93.97;99644.84;1785569;80;21148;-76
2022/03/08 05:07:44;;;;;;;17.48;10.58;;;;;;;-2.02;94.03;99638.54;1784806;80;21840;-77
2022/03/08 05:10:53;;;;;;;16.23;11.00;;;;;;;-2.01;94.01;99638.05;1785457;80;21784;-77
2022/03/08 05:13:53;;;;;;;15.38;10.05;;;;;;;-2.01;94.11;99633.54;1785751;80;21157;-81
2022/03/08 05:17:00;;;;;;;16.37;10.43;;;;;;;-1.99;94.25;99632.08;1785291;80;21192;-81
2022/03/08 05:19:58;;;;;;;15.72;10.90;;;;;;;-1.98;94.45;99633.78;1745079;82;21149;-76
2022/03/08 05:23:05;;;;;;;14.70;9.93;;;;;;;-1.97;94.51;99642.22;1708362;84;21248;-76
2022/03/08 05:26:10;;;;;;;17.27;12.07;;;;;;;-1.97;94.69;99643.07;1684322;85;21151;-76
2022/03/08 05:29:15;;;;;;;16.97;11.80;;;;;;;-1.96;94.82;99643.92;1709657;84;21173;-82
2022/03/08 05:32:21;;;;;;;17.37;11.90;;;;;;;-1.95;94.91;99651.84;1683196;85;21170;-77
2022/03/08 05:35:19;;;;;;;15.95;10.68;;;;;;;-1.93;94.88;99656.63;1709582;84;21173;-82
2022/03/08 05:38:12;;;;;;;14.68;10.48;;;;;;;-1.89;94.83;99652.72;1683281;85;21220;-76
2022/03/08 05:41:18;;;;;;;16.70;11.53;;;;;;;-1.87;94.77;99654.82;1709145;84;21241;-75
2022/03/08 05:44:23;;;;;;;18.57;11.88;;;;;;;-1.78;94.73;99645.73;1684284;85;21774;-76
2022/03/08 05:47:30;;;;;;;17.73;12.50;;;;;;;-1.72;94.58;99647.95;1708986;84;21233;-81
2022/03/08 05:50:36;;;;;;;24.75;13.43;;;;;;;-1.64;94.42;99648.23;1684306;85;21750;-82
2022/03/08 05:53:41;;;;;;;22.93;13.68;;;;;;;-1.57;93.99;99653.50;1709318;84;21459;-76
2022/03/08 05:56:47;;;;;;;18.27;12.58;;;;;;;-1.51;93.64;99656.19;1682983;85;21194;-75
2022/03/08 05:59:53;;;;;;;21.62;12.73;;;;;;;-1.46;93.19;99660.72;1708157;84;21742;-76
2022/03/08 06:03:04;;;;;;;17.90;12.25;;;;;;;-1.42;92.59;99668.42;1706675;84;21168;-81
2022/03/08 06:06:12;;;;;;;19.70;12.80;;;;;;;-1.39;92.00;99667.35;1669367;85;21153;-75
2022/03/08 06:09:18;;;;;;;19.92;12.10;;;;;;;-1.37;91.87;99675.64;1667940;85;21193;-81
2022/03/08 06:12:24;;;;;;;17.87;11.57;;;;;;;-1.33;91.67;99674.92;1708632;84;21173;-76
2022/03/08 06:15:31;;;;;;;21.65;13.15;;;;;;;-1.31;91.37;99673.86;1684359;85;21154;-81
2022/03/08 06:18:36;;;;;;;28.47;14.50;;;;;;;-1.27;91.21;99670.91;1708014;83;21841;-81
2022/03/08 06:21:42;;;;;;;27.82;16.37;;;;;;;-1.22;91.09;99669.62;1719320;83;21820;-80
2022/03/08 06:24:48;;;;;;;27.62;15.28;;;;;;;-1.19;90.85;99672.05;1713411;83;21198;-76
2022/03/08 06:27:54;;;;;;;24.57;15.10;;;;;;;-1.17;90.50;99668.78;1739342;82;21268;-81
2022/03/08 06:30:59;;;;;;;22.30;13.50;;;;;;;-1.15;90.11;99676.21;1741410;82;21197;-80
2022/03/08 06:34:04;;;;;;;24.07;14.55;;;;;;;-1.14;89.81;99673.89;1741460;82;21205;-81
2022/03/08 06:37:11;;;;;;;26.02;15.10;;;;;;;-1.09;89.51;99677.56;1741093;81;21223;-75
2022/03/08 06:40:17;;;;;;;25.50;14.95;;;;;;;-1.07;89.22;99681.86;1741127;82;21552;-76
2022/03/08 06:43:24;;;;;;;27.27;16.50;;;;;;;-1.07;88.45;99683.20;1740464;81;21228;-81
2022/03/08 06:46:30;;;;;;;31.37;19.57;;;;;;;-1.06;88.26;99680.02;1745604;81;21589;-81
2022/03/08 06:49:35;;;;;;;43.92;22.22;;;;;;;-1.05;87.79;99677.21;1746708;81;21134;-81
2022/03/08 06:52:40;;;;;;;36.35;20.52;;;;;;;-1.05;87.65;99685.27;1766117;81;21193;-76
2022/03/08 06:55:46;;;;;;;37.08;20.90;;;;;;;-1.04;87.63;99686.12;1753081;81;21793;-81
2022/03/08 06:58:51;;;;;;;40.85;21.17;;;;;;;-0.99;87.40;99684.42;1741550;82;21138;-81
2022/03/08 07:01:56;;;;;;;39.50;22.80;;;;;;;-0.98;86.78;99680.30;1705929;83;21204;-81
2022/03/08 07:05:03;;;;;;;36.28;19.32;;;;;;;-0.94;86.39;99681.78;1741572;82;21129;-81
2022/03/08 07:08:12;;;;;;;30.40;18.15;;;;;;;-0.89;86.23;99686.30;1705799;83;21497;-75
2022/03/08 07:11:18;;;;;;;26.00;15.18;;;;;;;-0.83;86.34;99677.77;1741499;81;21777;-76
2022/03/08 07:14:24;;;;;;;31.12;18.92;;;;;;;-0.74;85.18;99680.71;1705968;84;21160;-76
2022/03/08 07:17:23;;;;;;;27.87;15.68;;;;;;;-0.70;84.88;99679.02;1741642;81;21220;-75
2022/03/08 07:20:28;;;;;;;29.75;17.98;;;;;;;-0.68;84.64;99668.14;1708563;84;21754;-82
2022/03/08 07:23:33;;;;;;;34.13;19.45;;;;;;;-0.67;83.80;99672.52;1713501;82;21211;-80
2022/03/08 07:26:39;;;;;;;36.05;20.82;;;;;;;-0.67;83.97;99672.52;1713575;82;21638;-81
2022/03/08 07:29:46;;;;;;;31.17;19.40;;;;;;;-0.66;84.29;99670.20;1713546;84;21159;-81
2022/03/08 07:32:52;;;;;;;38.38;18.25;;;;;;;-0.63;84.19;99674.00;1710086;82;21593;-80
2022/03/08 07:35:58;;;;;;;37.90;19.87;;;;;;;-0.61;84.14;99666.66;1737902;82;21181;-81
2022/03/08 07:39:06;;;;;;;32.20;18.90;;;;;;;-0.55;84.05;99680.97;1705102;84;21751;-80
2022/03/08 07:42:11;;;;;;;32.28;20.50;;;;;;;-0.51;83.73;99674.39;1678528;85;21742;-75
2022/03/08 07:45:10;;;;;;;37.10;21.00;;;;;;;-0.47;83.69;99672.29;1680314;85;21212;-75
2022/03/08 07:48:04;;;;;;;43.87;19.92;;;;;;;-0.44;84.20;99670.72;1670665;85;21205;-81
2022/03/08 07:51:08;;;;;;;;;;;;;;;-0.39;83.55;99672.05;1664802;86;21731;-81
2022/03/08 07:54:14;;;;;;;36.88;16.75;;;;;;;-0.32;82.69;99675.98;1662485;86;20198;-81
2022/03/08 07:57:14;;;;;;;38.48;17.48;;;;;;;-0.27;82.38;99677.80;1676947;84;21169;-79
2022/03/08 08:00:21;;;;;;;31.23;17.62;;;;;;;-0.20;81.55;99675.95;1698118;84;21507;-81
2022/03/08 08:03:27;;;;;;;30.25;16.73;;;;;;;-0.14;81.08;99676.80;1676692;84;21786;-83
2022/03/08 08:06:33;;;;;;;37.45;18.40;;;;;;;-0.12;79.60;99678.40;1679585;84;21177;-76
2022/03/08 08:09:38;;;;;;;29.52;16.67;;;;;;;-0.10;78.63;99681.80;1677700;85;21165;-77
2022/03/08 08:12:46;;;;;;;29.77;15.48;;;;;;;-0.08;77.98;99675.83;1658721;85;21290;-82
2022/03/08 08:15:53;;;;;;;27.75;16.15;;;;;;;-0.03;77.93;99676.80;1649522;85;21199;-82
2022/03/08 08:19:01;;;;;;;28.77;15.72;;;;;;;0.03;77.18;99673.61;1675470;85;21723;-76
2022/03/08 08:22:08;;;;;;;26.60;14.55;;;;;;;0.07;77.26;99672.38;1703544;83;21198;-75
2022/03/08 08:25:14;;;;;;;24.98;13.62;;;;;;;0.14;76.53;99674.06;1740013;81;21205;-82
2022/03/08 08:28:20;;;;;;;28.87;13.98;;;;;;;0.21;76.65;99673.45;1733136;82;21189;-82
2022/03/08 08:31:30;;;;;;;41.45;15.98;;;;;;;0.33;76.06;99667.57;1733664;82;21544;-76
2022/03/08 08:34:36;;;;;;;25.57;14.43;;;;;;;0.44;74.99;99673.39;1733783;82;21751;-76
2022/03/08 08:37:41;;;;;;;28.98;15.63;;;;;;;0.50;74.70;99671.53;1734118;82;21205;-81
2022/03/08 08:40:45;;;;;;;28.62;16.25;;;;;;;0.56;74.38;99673.70;1734656;82;21177;-76
2022/03/08 08:43:51;;;;;;;24.37;13.90;;;;;;;0.57;73.87;99676.78;1734979;82;21200;-81
2022/03/08 08:46:59;;;;;;;24.27;12.90;;;;;;;0.61;73.77;99674.66;1734768;82;21818;-76
2022/03/08 08:50:05;;;;;;;26.33;13.58;;;;;;;0.64;73.26;99673.92;1734824;82;21212;-81
2022/03/08 08:53:11;;;;;;;23.70;14.10;;;;;;;0.70;72.77;99676.58;1735186;82;21228;-81
2022/03/08 08:56:17;;;;;;;19.52;12.55;;;;;;;0.71;72.41;99676.48;1734893;82;21169;-81
2022/03/08 08:59:23;;;;;;;26.37;12.80;;;;;;;0.76;72.38;99678.78;1733294;82;21229;-81
2022/03/08 09:02:29;;;;;;;20.35;11.40;;;;;;;0.82;72.51;99674.22;1734724;82;21204;-76
2022/03/08 09:05:35;;;;;;;18.85;12.00;;;;;;;0.96;72.83;99681.13;1733988;82;21165;-76
2022/03/08 09:08:41;;;;;;;23.95;11.30;;;;;;;1.06;72.01;99676.66;1733981;82;21192;-75
2022/03/08 09:11:49;;;;;;;20.10;11.25;;;;;;;1.08;70.93;99671.13;1734024;82;21204;-75
2022/03/08 09:14:55;;;;;;;15.95;8.25;;;;;;;1.08;69.14;99675.17;1733835;82;21749;-81
2022/03/08 09:18:05;;;;;;;13.45;8.33;;;;;;;1.10;70.42;99680.80;1733972;82;21232;-81
2022/03/08 09:21:13;;;;;;;14.15;8.68;;;;;;;1.13;69.30;99677.86;1734004;82;21193;-81
2022/03/08 09:24:18;;;;;;;15.65;8.50;;;;;;;1.18;69.09;99678.81;1727994;82;21348;-76
2022/03/08 09:27:24;;;;;;;11.48;7.97;;;;;;;1.28;69.42;99674.33;1758404;80;21152;-76
2022/03/08 09:30:29;;;;;;;11.35;7.55;;;;;;;1.40;68.54;99675.09;1766728;80;21148;-79
2022/03/08 09:33:36;;;;;;;11.55;6.75;;;;;;;1.51;67.73;99675.03;1764600;80;21148;-81
2022/03/08 09:36:42;;;;;;;8.63;5.95;;;;;;;1.65;66.64;99676.02;1769955;80;21148;-81
2022/03/08 09:39:48;;;;;;;11.30;6.90;;;;;;;1.73;64.95;99673.98;1780883;80;21697;-82
2022/03/08 09:42:53;;;;;;;9.58;6.33;;;;;;;1.81;63.49;99678.70;1765195;80;21216;-76
2022/03/08 09:45:59;;;;;;;8.23;5.50;;;;;;;1.88;63.24;99677.16;1783766;80;21144;-82
2022/03/08 09:48:58;;;;;;;10.40;5.75;;;;;;;1.98;63.43;99682.97;1768595;80;21132;-82
2022/03/08 09:51:50;;;;;;;9.90;6.20;;;;;;;2.07;62.84;99685.34;1782954;80;21196;-82
2022/03/08 09:54:56;;;;;;;9.13;5.50;;;;;;;2.16;63.26;99683.14;1777228;80;21682;-76
2022/03/08 09:57:57;;;;;;;8.48;5.45;;;;;;;2.28;63.72;99688.80;1766857;80;21698;-82
2022/03/08 10:01:02;;;;;;;11.65;6.42;;;;;;;2.30;62.37;99684.09;1785255;80;21169;-76
2022/03/08 10:04:09;;;;;;;9.28;5.83;;;;;;;2.36;60.97;99692.16;1784855;80;21161;-77
2022/03/08 10:07:20;;;;;;;9.40;5.97;;;;;;;2.38;59.12;99692.86;1785018;79;21192;-76
2022/03/08 10:10:26;;;;;;;9.70;6.17;;;;;;;2.34;59.96;99702.72;1767336;80;21140;-76
2022/03/08 10:13:35;;;;;;;13.00;6.60;;;;;;;2.34;60.56;99692.77;1784068;80;21189;-76
2022/03/08 10:16:42;;;;;;;10.03;6.00;;;;;;;2.36;60.50;99687.26;1784251;80;21861;-82
2022/03/08 10:19:55;;;;;;;10.18;5.80;;;;;;;2.36;60.21;99688.11;1721632;80;21200;-76
2022/03/08 10:23:00;;;;;;;12.13;6.22;;;;;;;2.37;61.30;99688.96;1784006;79;21219;-81
2022/03/08 10:26:12;;;;;;;9.80;5.70;;;;;;;2.41;60.41;99687.20;1745288;82;21152;-77
2022/03/08 10:29:18;;;;;;;6.65;5.30;;;;;;;2.38;59.95;99684.77;1754143;81;21209;-82
2022/03/08 10:32:25;;;;;;;11.33;6.20;;;;;;;2.36;59.53;99689.96;1726700;81;21264;-78
2022/03/08 10:35:37;;;;;;;7.33;4.83;;;;;;;2.33;59.18;99685.68;1746224;81;21741;-77
2022/03/08 10:38:40;;;;;;;7.58;5.37;;;;;;;2.41;58.85;99687.70;1746927;81;21207;-81
2022/03/08 10:41:58;;;;;;;6.03;4.47;;;;;;;2.45;59.48;99682.38;1768054;79;21260;-76
2022/03/08 10:45:19;;;;;;;10.05;5.47;;;;;;;2.56;59.84;99674.98;1767743;81;21331;-76
2022/03/08 10:48:25;;;;;;;8.43;5.40;;;;;;;2.65;60.21;99677.34;1767894;79;21244;-82
2022/03/08 10:51:30;;;;;;;8.08;5.40;;;;;;;2.68;59.96;99677.07;1767868;79;21682;-82
2022/03/08 10:54:31;;;;;;;7.07;4.43;;;;;;;2.75;60.11;99674.14;1768327;81;21141;-76
2022/03/08 10:57:40;;;;;;;8.83;6.20;;;;;;;2.84;58.29;99672.95;1757448;81;21133;-76
2022/03/08 11:01:01;;;;;;;9.68;5.47;;;;;;;2.78;56.98;99671.67;1745492;82;21195;-82
2022/03/08 11:04:08;;;;;;;9.88;5.72;;;;;;;2.73;57.74;99664.00;1745811;82;21163;-82
2022/03/08 11:07:14;;;;;;;9.30;6.17;;;;;;;2.67;59.24;99669.09;1744688;82;21199;-81
2022/03/08 11:10:20;;;;;;;7.47;5.92;;;;;;;2.65;59.42;99671.94;1746548;82;21716;-82
2022/03/08 11:13:19;;;;;;;13.50;6.53;;;;;;;2.72;59.35;99665.47;1745265;82;21176;-76
2022/03/08 11:16:26;;;;;;;12.20;7.53;;;;;;;2.78;58.48;99668.47;1745309;82;21183;-76
2022/03/08 11:19:34;;;;;;;9.13;6.20;;;;;;;2.72;56.89;99663.61;1746622;82;21215;-76
2022/03/08 11:22:43;;;;;;;11.05;6.22;;;;;;;2.76;57.03;99660.98;1745764;82;21171;-77
2022/03/08 11:25:51;;;;;;;11.30;6.85;;;;;;;2.86;57.09;99660.13;1764211;79;21227;-82
2022/03/08 11:28:59;;;;;;;11.40;6.37;;;;;;;2.89;57.11;99659.86;1771838;81;21177;-81
2022/03/08 11:32:06;;;;;;;8.93;6.33;;;;;;;2.98;56.92;99661.70;1771929;81;21183;-82
2022/03/08 11:35:22;;;;;;;11.00;6.37;;;;;;;3.07;56.76;99658.14;1771889;81;21157;-76
2022/03/08 11:38:27;;;;;;;9.45;6.33;;;;;;;3.26;56.70;99655.91;1769824;81;21221;-82
2022/03/08 11:41:34;;;;;;;9.73;6.90;;;;;;;3.39;55.58;99662.33;1734175;82;21817;-76
2022/03/08 11:44:42;;;;;;;9.90;6.08;;;;;;;3.43;55.31;99659.19;1734210;82;21149;-77
2022/03/08 11:48:04;;;;;;;9.35;5.83;;;;;;;3.30;52.88;99660.88;1733832;82;21754;-77
2022/03/08 11:51:15;;;;;;;15.32;8.73;;;;;;;2.96;52.51;99671.28;1733771;82;22098;-76
2022/03/08 11:54:32;;;;;;;17.55;9.00;;;;;;;2.60;60.21;99686.87;1749905;81;21142;-83
2022/03/08 11:57:57;;;;;;;12.00;7.80;;;;;;;1.99;67.82;99697.30;1770367;81;21169;-82
2022/03/08 12:01:05;;;;;;;7.15;5.65;;;;;;;1.26;73.75;99699.19;1771345;81;21173;-76
2022/03/08 12:04:17;;;;;;;9.80;5.65;;;;;;;0.51;78.07;99706.88;1730351;82;21181;-75
2022/03/08 12:07:31;;;;;;;9.10;5.50;;;;;;;-0.04;80.63;99696.61;1771396;79;21212;-82
2022/03/08 12:10:38;;;;;;;11.88;6.05;;;;;;;-0.32;81.99;99696.63;1771615;81;21138;-76
2022/03/08 12:13:48;;;;;;;8.95;6.12;;;;;;;-0.41;83.98;99717.02;1770574;81;21166;-76
2022/03/08 12:16:56;;;;;;;7.97;5.95;;;;;;;-0.44;84.86;99709.19;1770884;79;21615;-82
2022/03/08 12:20:05;;;;;;;7.75;5.08;;;;;;;-0.42;85.45;99703.70;1770045;81;21202;-76
2022/03/08 12:23:17;;;;;;;11.97;7.45;;;;;;;-0.38;85.11;99707.84;1769009;79;21185;-82
2022/03/08 12:27:05;;;;;;;13.25;8.15;;;;;;;-0.33;84.74;99702.49;1769831;81;21732;-82
2022/03/08 12:30:15;;;;;;;9.63;6.55;;;;;;;-0.30;85.12;99704.91;1770593;81;21763;-82
2022/03/08 12:33:21;;;;;;;12.03;7.47;;;;;;;-0.30;84.06;99711.63;1771476;81;21253;-82
2022/03/08 12:36:29;;;;;;;12.33;5.75;;;;;;;-0.22;83.68;99714.22;1771276;81;21225;-76
2022/03/08 12:40:09;;;;;;;12.18;7.40;;;;;;;-0.12;83.57;99709.31;1771374;81;21209;-81
2022/03/08 12:43:18;;;;;;;8.68;6.72;;;;;;;0.07;83.14;99707.84;1771297;81;21811;-76
2022/03/08 12:46:24;;;;;;;10.25;6.97;;;;;;;0.30;82.31;99702.78;1762996;81;21193;-76
2022/03/08 12:49:31;;;;;;;13.62;8.88;;;;;;;0.47;80.41;99703.60;1770783;81;21196;-82
2022/03/08 12:52:37;;;;;;;10.90;7.05;;;;;;;0.64;78.71;99704.88;1770328;81;21228;-83
2022/03/08 12:55:51;;;;;;;9.95;6.58;;;;;;;0.79;76.51;99704.08;1770628;81;21159;-77
2022/03/08 12:59:02;;;;;;;8.08;5.97;;;;;;;0.92;75.72;99703.91;1770859;81;21213;-82
2022/03/08 13:02:16;;;;;;;14.50;6.58;;;;;;;0.99;75.30;99699.23;1771105;81;21158;-76
2022/03/08 13:05:27;;;;;;;10.40;6.67;;;;;;;1.02;71.52;99695.41;1771892;81;21149;-77
2022/03/08 13:08:28;;;;;;;8.30;5.65;;;;;;;0.99;68.91;99697.89;1748997;81;21220;-76
2022/03/08 13:11:36;;;;;;;10.45;6.75;;;;;;;1.01;69.66;99699.09;1770598;80;21837;-76
2022/03/08 13:14:41;;;;;;;11.33;6.55;;;;;;;1.01;69.65;99696.40;1770125;81;21201;-78
2022/03/08 13:17:49;;;;;;;10.32;6.58;;;;;;;1.02;69.50;99694.06;1771303;81;21174;-76
2022/03/08 13:20:56;;;;;;;10.13;6.30;;;;;;;0.98;69.49;99701.54;1772107;81;21692;-82
2022/03/08 13:24:03;;;;;;;9.03;6.37;;;;;;;0.90;69.16;99701.85;1771989;81;21146;-81
2022/03/08 13:27:11;;;;;;;10.82;6.72;;;;;;;0.78;68.68;99705.56;1773673;80;21164;-82
2022/03/08 13:30:39;;;;;;;10.38;6.50;;;;;;;0.67;69.71;99706.47;1780216;80;21150;-81
2022/03/08 13:33:52;;;;;;;10.50;6.17;;;;;;;0.58;70.92;99710.78;1779866;80;21746;-82
2022/03/08 13:37:06;;;;;;;8.80;6.03;;;;;;;0.48;72.00;99708.49;1778512;80;21177;-82
2022/03/08 13:40:14;;;;;;;9.15;6.28;;;;;;;0.39;74.56;99711.94;1780100;80;21154;-75
2022/03/08 13:43:20;;;;;;;9.80;6.05;;;;;;;0.31;77.16;99707.17;1780243;80;21208;-82
2022/03/08 13:46:40;;;;;;;10.32;5.60;;;;;;;0.31;78.54;99709.02;1779476;80;21140;-82
2022/03/08 13:49:46;;;;;;;8.78;5.90;;;;;;;0.32;79.34;99708.03;1780227;80;21173;-82
2022/03/08 13:53:03;;;;;;;10.70;7.03;;;;;;;0.33;79.79;99709.73;1779228;80;21193;-82
2022/03/08 13:56:10;;;;;;;10.43;6.60;;;;;;;0.32;80.49;99698.61;1780260;80;21184;-81
2022/03/08 13:59:16;;;;;;;8.35;5.85;;;;;;;0.31;80.96;99705.83;1778888;80;21189;-81
2022/03/08 14:02:24;;;;;;;7.97;5.65;;;;;;;0.33;81.15;99700.31;1779488;80;21145;-82
2022/03/08 14:05:31;;;;;;;8.68;5.95;;;;;;;0.31;81.31;99699.11;1780309;80;21738;-82
2022/03/08 14:08:43;;;;;;;10.98;5.75;;;;;;;0.31;81.87;99697.76;1778686;80;21211;-82
2022/03/08 14:12:04;;;;;;;9.73;5.85;;;;;;;0.36;82.05;99695.55;1779825;80;21224;-83
2022/03/08 14:15:10;;;;;;;9.63;5.37;;;;;;;0.43;82.18;99703.48;1780185;80;21197;-82
2022/03/08 14:18:16;;;;;;;10.05;6.08;;;;;;;0.50;82.52;99702.48;1780074;80;21182;-83
2022/03/08 14:21:34;;;;;;;9.23;6.70;;;;;;;0.54;83.05;99712.02;1780233;80;21158;-82
2022/03/08 14:24:39;;;;;;;9.68;5.90;;;;;;;0.56;82.36;99706.48;1780427;80;21204;-82
2022/03/08 14:27:52;;;;;;;12.33;6.28;;;;;;;0.62;81.31;99705.52;1778869;80;21189;-81
2022/03/08 14:30:52;;;;;;;10.53;5.55;;;;;;;0.68;80.61;99704.14;1780227;80;21143;-82
2022/03/08 14:34:15;;;;;;;9.05;5.45;;;;;;;0.76;79.69;99711.09;1779475;80;21152;-81